sensor_id;sensor_type;location;lat;lon;timestamp;P1;durP1;ratioP1;P2;durP2;ratioP2
8129;SDS011;4106;52.532;13.408;2022-08-19T00:00:17;5.20;;;4.80;;
8129;SDS011;4106;52.532;13.408;2022-08-19T00:02:45;5.40;;;4.93;;
8129;SDS011;4106;52.532;13.408;2022-08-19T00:05:12;6.10;;;5.55;;
8129;SDS011;4106;52.532;13.408;2022-08-19T00:07:39;5.32;;;4.93;;
8129;SDS011;4106;52.532;13.408;2022-08-19T00:10:08;5.82;;;5.40;;
8129;SDS011;4106;52.532;13.408;2022-08-19T00:12:36;6.07;;;5.57;;
8129;SDS011;4106;52.532;13.408;2022-08-19T00:15:05;5.87;;;5.28;;
8129;SDS011;4106;52.532;13.408;2022-08-19T00:17:32;5.05;;;4.75;;
8129;SDS011;4106;52.532;13.408;2022-08-19T00:19:59;5.72;;;5.32;;
8129;SDS011;4106;52.532;13.408;2022-08-19T00:22:27;5.95;;;5.37;;
8129;SDS011;4106;52.532;13.408;2022-08-19T00:24:55;5.93;;;5.43;;
8129;SDS011;4106;52.532;13.408;2022-08-19T00:27:23;5.87;;;5.47;;
8129;SDS011;4106;52.532;13.408;2022-08-19T00:29:51;6.25;;;5.75;;
8129;SDS011;4106;52.532;13.408;2022-08-19T00:32:19;6.53;;;5.97;;
8129;SDS011;4106;52.532;13.408;2022-08-19T00:34:47;5.40;;;5.00;;
8129;SDS011;4106;52.532;13.408;2022-08-19T00:37:14;6.60;;;6.00;;
8129;SDS011;4106;52.532;13.408;2022-08-19T00:39:41;6.00;;;5.53;;
8129;SDS011;4106;52.532;13.408;2022-08-19T00:42:08;6.55;;;6.00;;
8129;SDS011;4106;52.532;13.408;2022-08-19T00:44:36;5.72;;;5.22;;
8129;SDS011;4106;52.532;13.408;2022-08-19T00:47:03;5.60;;;5.20;;
8129;SDS011;4106;52.532;13.408;2022-08-19T00:49:34;6.22;;;5.70;;
8129;SDS011;4106;52.532;13.408;2022-08-19T00:52:02;5.65;;;5.00;;
8129;SDS011;4106;52.532;13.408;2022-08-19T00:54:27;6.43;;;5.90;;
8129;SDS011;4106;52.532;13.408;2022-08-19T00:56:54;6.95;;;6.35;;
8129;SDS011;4106;52.532;13.408;2022-08-19T00:59:21;5.90;;;5.40;;
8129;SDS011;4106;52.532;13.408;2022-08-19T01:01:48;6.80;;;6.20;;
8129;SDS011;4106;52.532;13.408;2022-08-19T01:04:15;6.60;;;6.10;;
8129;SDS011;4106;52.532;13.408;2022-08-19T01:06:42;6.87;;;6.30;;
8129;SDS011;4106;52.532;13.408;2022-08-19T01:09:10;6.53;;;6.00;;
8129;SDS011;4106;52.532;13.408;2022-08-19T01:11:38;7.50;;;6.20;;
8129;SDS011;4106;52.532;13.408;2022-08-19T01:14:05;6.70;;;5.90;;
8129;SDS011;4106;52.532;13.408;2022-08-19T01:16:32;7.00;;;6.40;;
8129;SDS011;4106;52.532;13.408;2022-08-19T01:18:59;6.15;;;5.65;;
8129;SDS011;4106;52.532;13.408;2022-08-19T01:21:31;6.18;;;5.68;;
8129;SDS011;4106;52.532;13.408;2022-08-19T01:23:58;6.03;;;5.43;;
8129;SDS011;4106;52.532;13.408;2022-08-19T01:26:25;6.35;;;5.85;;
8129;SDS011;4106;52.532;13.408;2022-08-19T01:28:54;6.55;;;5.95;;
8129;SDS011;4106;52.532;13.408;2022-08-19T01:31:21;6.62;;;6.03;;
8129;SDS011;4106;52.532;13.408;2022-08-19T01:33:47;5.97;;;5.57;;
8129;SDS011;4106;52.532;13.408;2022-08-19T01:36:16;6.22;;;5.70;;
8129;SDS011;4106;52.532;13.408;2022-08-19T01:38:42;6.53;;;6.05;;
8129;SDS011;4106;52.532;13.408;2022-08-19T01:41:10;6.45;;;5.78;;
8129;SDS011;4106;52.532;13.408;2022-08-19T01:43:36;6.05;;;5.53;;
8129;SDS011;4106;52.532;13.408;2022-08-19T01:46:03;7.85;;;5.62;;
8129;SDS011;4106;52.532;13.408;2022-08-19T01:48:34;6.85;;;6.25;;
8129;SDS011;4106;52.532;13.408;2022-08-19T01:51:01;6.10;;;5.50;;
8129;SDS011;4106;52.532;13.408;2022-08-19T01:53:28;6.53;;;5.93;;
8129;SDS011;4106;52.532;13.408;2022-08-19T01:55:56;6.50;;;5.60;;
8129;SDS011;4106;52.532;13.408;2022-08-19T01:58:24;6.78;;;6.18;;
8129;SDS011;4106;52.532;13.408;2022-08-19T02:00:50;6.03;;;5.53;;
8129;SDS011;4106;52.532;13.408;2022-08-19T02:03:18;6.40;;;5.80;;
8129;SDS011;4106;52.532;13.408;2022-08-19T02:05:46;5.95;;;5.45;;
8129;SDS011;4106;52.532;13.408;2022-08-19T02:08:14;6.10;;;5.60;;
8129;SDS011;4106;52.532;13.408;2022-08-19T02:10:41;6.55;;;5.95;;
8129;SDS011;4106;52.532;13.408;2022-08-19T02:13:08;6.37;;;5.78;;
8129;SDS011;4106;52.532;13.408;2022-08-19T02:15:35;7.60;;;6.20;;
8129;SDS011;4106;52.532;13.408;2022-08-19T02:18:02;6.25;;;5.65;;
8129;SDS011;4106;52.532;13.408;2022-08-19T02:20:30;8.65;;;5.90;;
8129;SDS011;4106;52.532;13.408;2022-08-19T02:22:57;6.03;;;5.53;;
8129;SDS011;4106;52.532;13.408;2022-08-19T02:25:24;9.52;;;6.65;;
8129;SDS011;4106;52.532;13.408;2022-08-19T02:27:51;7.07;;;6.25;;
8129;SDS011;4106;52.532;13.408;2022-08-19T02:30:19;6.53;;;5.93;;
8129;SDS011;4106;52.532;13.408;2022-08-19T02:32:46;7.37;;;6.53;;
8129;SDS011;4106;52.532;13.408;2022-08-19T02:35:13;6.40;;;5.80;;
8129;SDS011;4106;52.532;13.408;2022-08-19T02:37:41;6.47;;;5.60;;
8129;SDS011;4106;52.532;13.408;2022-08-19T02:40:13;6.20;;;5.60;;
8129;SDS011;4106;52.532;13.408;2022-08-19T02:42:41;10.57;;;5.80;;
8129;SDS011;4106;52.532;13.408;2022-08-19T02:45:09;6.45;;;5.85;;
8129;SDS011;4106;52.532;13.408;2022-08-19T02:47:36;8.38;;;6.55;;
8129;SDS011;4106;52.532;13.408;2022-08-19T02:50:04;7.45;;;6.68;;
8129;SDS011;4106;52.532;13.408;2022-08-19T02:52:33;6.97;;;6.28;;
8129;SDS011;4106;52.532;13.408;2022-08-19T02:55:00;8.35;;;5.80;;
8129;SDS011;4106;52.532;13.408;2022-08-19T02:57:29;7.00;;;5.93;;
8129;SDS011;4106;52.532;13.408;2022-08-19T02:59:55;6.20;;;5.45;;
8129;SDS011;4106;52.532;13.408;2022-08-19T03:02:23;6.93;;;6.32;;
8129;SDS011;4106;52.532;13.408;2022-08-19T03:04:50;8.57;;;6.32;;
8129;SDS011;4106;52.532;13.408;2022-08-19T03:07:17;6.43;;;5.82;;
8129;SDS011;4106;52.532;13.408;2022-08-19T03:09:44;6.25;;;5.68;;
8129;SDS011;4106;52.532;13.408;2022-08-19T03:12:11;6.75;;;6.05;;
8129;SDS011;4106;52.532;13.408;2022-08-19T03:14:39;6.60;;;6.00;;
8129;SDS011;4106;52.532;13.408;2022-08-19T03:17:06;6.55;;;5.95;;
8129;SDS011;4106;52.532;13.408;2022-08-19T03:19:33;6.53;;;6.00;;
8129;SDS011;4106;52.532;13.408;2022-08-19T03:22:01;7.80;;;6.03;;
8129;SDS011;4106;52.532;13.408;2022-08-19T03:24:28;6.43;;;5.78;;
8129;SDS011;4106;52.532;13.408;2022-08-19T03:26:56;6.45;;;5.95;;
8129;SDS011;4106;52.532;13.408;2022-08-19T03:29:26;6.18;;;5.68;;
8129;SDS011;4106;52.532;13.408;2022-08-19T03:31:53;6.30;;;5.80;;
8129;SDS011;4106;52.532;13.408;2022-08-19T03:34:22;6.87;;;6.00;;
8129;SDS011;4106;52.532;13.408;2022-08-19T03:36:49;6.03;;;5.53;;
8129;SDS011;4106;52.532;13.408;2022-08-19T03:39:17;6.25;;;5.75;;
8129;SDS011;4106;52.532;13.408;2022-08-19T03:41:44;6.00;;;5.50;;
8129;SDS011;4106;52.532;13.408;2022-08-19T03:44:12;5.70;;;5.20;;
8129;SDS011;4106;52.532;13.408;2022-08-19T03:46:39;6.40;;;5.72;;
8129;SDS011;4106;52.532;13.408;2022-08-19T03:49:06;6.43;;;5.93;;
8129;SDS011;4106;52.532;13.408;2022-08-19T03:51:34;5.80;;;5.30;;
8129;SDS011;4106;52.532;13.408;2022-08-19T03:54:02;6.72;;;5.97;;
8129;SDS011;4106;52.532;13.408;2022-08-19T03:56:28;5.80;;;5.40;;
8129;SDS011;4106;52.532;13.408;2022-08-19T03:58:56;5.97;;;5.47;;
8129;SDS011;4106;52.532;13.408;2022-08-19T04:01:24;5.87;;;5.47;;
8129;SDS011;4106;52.532;13.408;2022-08-19T04:03:50;6.50;;;5.90;;
8129;SDS011;4106;52.532;13.408;2022-08-19T04:06:18;6.15;;;5.65;;
8129;SDS011;4106;52.532;13.408;2022-08-19T04:08:45;5.90;;;5.37;;
8129;SDS011;4106;52.532;13.408;2022-08-19T04:11:15;6.28;;;5.70;;
8129;SDS011;4106;52.532;13.408;2022-08-19T04:13:40;6.30;;;5.75;;
8129;SDS011;4106;52.532;13.408;2022-08-19T04:16:08;6.40;;;5.80;;
8129;SDS011;4106;52.532;13.408;2022-08-19T04:18:36;5.45;;;5.00;;
8129;SDS011;4106;52.532;13.408;2022-08-19T04:21:03;5.60;;;5.18;;
8129;SDS011;4106;52.532;13.408;2022-08-19T04:23:30;4.68;;;4.30;;
8129;SDS011;4106;52.532;13.408;2022-08-19T04:25:58;5.90;;;5.40;;
8129;SDS011;4106;52.532;13.408;2022-08-19T04:28:25;4.60;;;4.30;;
8129;SDS011;4106;52.532;13.408;2022-08-19T04:30:53;5.57;;;5.10;;
8129;SDS011;4106;52.532;13.408;2022-08-19T04:33:21;5.25;;;4.75;;
8129;SDS011;4106;52.532;13.408;2022-08-19T04:35:47;5.85;;;5.45;;
8129;SDS011;4106;52.532;13.408;2022-08-19T04:38:14;6.15;;;5.65;;
8129;SDS011;4106;52.532;13.408;2022-08-19T04:40:42;5.45;;;5.07;;
8129;SDS011;4106;52.532;13.408;2022-08-19T04:43:15;6.35;;;5.85;;
8129;SDS011;4106;52.532;13.408;2022-08-19T04:45:43;5.32;;;4.85;;
8129;SDS011;4106;52.532;13.408;2022-08-19T04:48:09;6.80;;;6.30;;
8129;SDS011;4106;52.532;13.408;2022-08-19T04:50:39;6.40;;;5.90;;
8129;SDS011;4106;52.532;13.408;2022-08-19T04:53:03;5.75;;;5.35;;
8129;SDS011;4106;52.532;13.408;2022-08-19T04:55:31;5.68;;;5.25;;
8129;SDS011;4106;52.532;13.408;2022-08-19T04:57:58;6.20;;;5.68;;
8129;SDS011;4106;52.532;13.408;2022-08-19T05:00:26;6.12;;;5.68;;
8129;SDS011;4106;52.532;13.408;2022-08-19T05:02:54;5.90;;;5.40;;
8129;SDS011;4106;52.532;13.408;2022-08-19T05:05:22;6.37;;;5.78;;
8129;SDS011;4106;52.532;13.408;2022-08-19T05:07:50;6.03;;;5.53;;
8129;SDS011;4106;52.532;13.408;2022-08-19T05:10:17;6.57;;;6.03;;
8129;SDS011;4106;52.532;13.408;2022-08-19T05:12:44;6.75;;;5.72;;
8129;SDS011;4106;52.532;13.408;2022-08-19T05:15:11;6.00;;;5.57;;
8129;SDS011;4106;52.532;13.408;2022-08-19T05:17:38;6.25;;;5.65;;
8129;SDS011;4106;52.532;13.408;2022-08-19T05:20:06;6.62;;;6.12;;
8129;SDS011;4106;52.532;13.408;2022-08-19T05:22:40;5.90;;;5.37;;
8129;SDS011;4106;52.532;13.408;2022-08-19T05:25:08;6.05;;;5.55;;
8129;SDS011;4106;52.532;13.408;2022-08-19T05:27:37;6.43;;;5.82;;
8129;SDS011;4106;52.532;13.408;2022-08-19T05:30:05;6.37;;;5.82;;
8129;SDS011;4106;52.532;13.408;2022-08-19T05:32:32;6.05;;;5.55;;
8129;SDS011;4106;52.532;13.408;2022-08-19T05:34:59;6.37;;;5.87;;
8129;SDS011;4106;52.532;13.408;2022-08-19T05:37:28;7.25;;;6.07;;
8129;SDS011;4106;52.532;13.408;2022-08-19T05:39:55;5.90;;;5.50;;
8129;SDS011;4106;52.532;13.408;2022-08-19T05:42:23;6.20;;;5.70;;
8129;SDS011;4106;52.532;13.408;2022-08-19T05:44:51;7.97;;;5.97;;
8129;SDS011;4106;52.532;13.408;2022-08-19T05:47:19;5.95;;;5.53;;
8129;SDS011;4106;52.532;13.408;2022-08-19T05:49:46;5.85;;;5.30;;
8129;SDS011;4106;52.532;13.408;2022-08-19T05:52:13;6.95;;;6.25;;
8129;SDS011;4106;52.532;13.408;2022-08-19T05:54:40;5.90;;;5.50;;
8129;SDS011;4106;52.532;13.408;2022-08-19T05:57:07;6.70;;;6.10;;
8129;SDS011;4106;52.532;13.408;2022-08-19T05:59:34;8.23;;;5.97;;
8129;SDS011;4106;52.532;13.408;2022-08-19T06:02:03;7.22;;;6.18;;
8129;SDS011;4106;52.532;13.408;2022-08-19T06:04:29;6.00;;;5.50;;
8129;SDS011;4106;52.532;13.408;2022-08-19T06:06:57;7.15;;;6.03;;
8129;SDS011;4106;52.532;13.408;2022-08-19T06:09:25;7.12;;;6.43;;
8129;SDS011;4106;52.532;13.408;2022-08-19T06:11:54;6.80;;;6.30;;
8129;SDS011;4106;52.532;13.408;2022-08-19T06:14:22;6.68;;;6.18;;
8129;SDS011;4106;52.532;13.408;2022-08-19T06:16:48;7.82;;;7.07;;
8129;SDS011;4106;52.532;13.408;2022-08-19T06:19:15;7.28;;;6.47;;
8129;SDS011;4106;52.532;13.408;2022-08-19T06:21:43;8.00;;;7.07;;
8129;SDS011;4106;52.532;13.408;2022-08-19T06:24:11;7.43;;;6.78;;
8129;SDS011;4106;52.532;13.408;2022-08-19T06:26:38;7.75;;;7.00;;
8129;SDS011;4106;52.532;13.408;2022-08-19T06:29:05;7.20;;;6.57;;
8129;SDS011;4106;52.532;13.408;2022-08-19T06:31:32;7.12;;;6.53;;
8129;SDS011;4106;52.532;13.408;2022-08-19T06:33:59;6.28;;;5.78;;
8129;SDS011;4106;52.532;13.408;2022-08-19T06:36:31;6.82;;;6.18;;
8129;SDS011;4106;52.532;13.408;2022-08-19T06:38:57;5.75;;;5.25;;
8129;SDS011;4106;52.532;13.408;2022-08-19T06:41:25;7.75;;;7.05;;
8129;SDS011;4106;52.532;13.408;2022-08-19T06:43:52;7.18;;;6.57;;
8129;SDS011;4106;52.532;13.408;2022-08-19T06:46:19;7.47;;;6.75;;
8129;SDS011;4106;52.532;13.408;2022-08-19T06:48:46;7.20;;;6.60;;
8129;SDS011;4106;52.532;13.408;2022-08-19T06:51:14;8.30;;;7.43;;
8129;SDS011;4106;52.532;13.408;2022-08-19T06:53:40;8.15;;;7.18;;
8129;SDS011;4106;52.532;13.408;2022-08-19T06:56:07;7.80;;;7.10;;
8129;SDS011;4106;52.532;13.408;2022-08-19T06:58:35;7.97;;;7.18;;
8129;SDS011;4106;52.532;13.408;2022-08-19T07:01:02;7.82;;;7.12;;
8129;SDS011;4106;52.532;13.408;2022-08-19T07:03:30;8.95;;;8.05;;
8129;SDS011;4106;52.532;13.408;2022-08-19T07:05:56;9.23;;;8.27;;
8129;SDS011;4106;52.532;13.408;2022-08-19T07:08:24;8.35;;;7.65;;
8129;SDS011;4106;52.532;13.408;2022-08-19T07:10:51;8.70;;;7.70;;
8129;SDS011;4106;52.532;13.408;2022-08-19T07:13:19;8.57;;;7.62;;
8129;SDS011;4106;52.532;13.408;2022-08-19T07:15:46;7.53;;;7.03;;
8129;SDS011;4106;52.532;13.408;2022-08-19T07:18:14;8.80;;;7.85;;
8129;SDS011;4106;52.532;13.408;2022-08-19T07:20:42;8.90;;;7.80;;
8129;SDS011;4106;52.532;13.408;2022-08-19T07:23:10;7.72;;;7.03;;
8129;SDS011;4106;52.532;13.408;2022-08-19T07:25:38;7.87;;;7.18;;
8129;SDS011;4106;52.532;13.408;2022-08-19T07:28:06;7.93;;;7.22;;
8129;SDS011;4106;52.532;13.408;2022-08-19T07:30:35;6.45;;;5.95;;
8129;SDS011;4106;52.532;13.408;2022-08-19T07:33:00;7.75;;;6.50;;
8129;SDS011;4106;52.532;13.408;2022-08-19T07:35:28;6.22;;;5.82;;
8129;SDS011;4106;52.532;13.408;2022-08-19T07:37:55;6.90;;;6.40;;
8129;SDS011;4106;52.532;13.408;2022-08-19T07:40:22;8.07;;;7.35;;
8129;SDS011;4106;52.532;13.408;2022-08-19T07:42:50;9.02;;;7.95;;
8129;SDS011;4106;52.532;13.408;2022-08-19T07:45:18;9.20;;;8.40;;
8129;SDS011;4106;52.532;13.408;2022-08-19T07:47:46;8.65;;;7.75;;
8129;SDS011;4106;52.532;13.408;2022-08-19T07:50:14;9.30;;;8.50;;
8129;SDS011;4106;52.532;13.408;2022-08-19T07:52:42;8.52;;;7.93;;
8129;SDS011;4106;52.532;13.408;2022-08-19T07:55:10;9.55;;;8.63;;
8129;SDS011;4106;52.532;13.408;2022-08-19T07:57:38;9.65;;;8.80;;
8129;SDS011;4106;52.532;13.408;2022-08-19T08:00:05;12.37;;;9.48;;
8129;SDS011;4106;52.532;13.408;2022-08-19T08:02:33;10.68;;;9.57;;
8129;SDS011;4106;52.532;13.408;2022-08-19T08:05:00;12.55;;;10.15;;
8129;SDS011;4106;52.532;13.408;2022-08-19T08:07:34;106.90;;;30.17;;
8129;SDS011;4106;52.532;13.408;2022-08-19T08:10:07;125.00;;;39.65;;
8129;SDS011;4106;52.532;13.408;2022-08-19T08:12:37;102.57;;;35.40;;
8129;SDS011;4106;52.532;13.408;2022-08-19T08:15:04;86.45;;;29.27;;
8129;SDS011;4106;52.532;13.408;2022-08-19T08:17:29;27.75;;;12.93;;
8129;SDS011;4106;52.532;13.408;2022-08-19T08:19:56;21.77;;;10.45;;
8129;SDS011;4106;52.532;13.408;2022-08-19T08:22:23;67.18;;;24.58;;
8129;SDS011;4106;52.532;13.408;2022-08-19T08:25:09;57.72;;;23.12;;
8129;SDS011;4106;52.532;13.408;2022-08-19T08:27:37;44.63;;;20.67;;
8129;SDS011;4106;52.532;13.408;2022-08-19T08:30:04;46.35;;;21.98;;
8129;SDS011;4106;52.532;13.408;2022-08-19T08:32:32;35.58;;;17.40;;
8129;SDS011;4106;52.532;13.408;2022-08-19T08:34:59;21.55;;;12.13;;
8129;SDS011;4106;52.532;13.408;2022-08-19T08:37:26;42.00;;;17.70;;
8129;SDS011;4106;52.532;13.408;2022-08-19T08:42:39;38.47;;;20.02;;
8129;SDS011;4106;52.532;13.408;2022-08-19T08:45:08;37.15;;;17.50;;
8129;SDS011;4106;52.532;13.408;2022-08-19T08:47:35;40.28;;;18.67;;
8129;SDS011;4106;52.532;13.408;2022-08-19T08:50:05;31.27;;;17.73;;
8129;SDS011;4106;52.532;13.408;2022-08-19T08:52:33;26.80;;;16.48;;
8129;SDS011;4106;52.532;13.408;2022-08-19T08:55:05;27.42;;;14.85;;
8129;SDS011;4106;52.532;13.408;2022-08-19T08:57:33;27.27;;;15.57;;
8129;SDS011;4106;52.532;13.408;2022-08-19T09:00:00;15.77;;;12.55;;
8129;SDS011;4106;52.532;13.408;2022-08-19T09:02:27;19.35;;;14.40;;
8129;SDS011;4106;52.532;13.408;2022-08-19T09:04:55;19.37;;;13.88;;
8129;SDS011;4106;52.532;13.408;2022-08-19T09:10:02;16.25;;;12.13;;
8129;SDS011;4106;52.532;13.408;2022-08-19T09:12:45;14.07;;;12.10;;
8129;SDS011;4106;52.532;13.408;2022-08-19T09:15:10;13.15;;;11.85;;
8129;SDS011;4106;52.532;13.408;2022-08-19T09:17:36;12.63;;;11.38;;
8129;SDS011;4106;52.532;13.408;2022-08-19T09:20:14;13.32;;;10.57;;
8129;SDS011;4106;52.532;13.408;2022-08-19T09:22:45;11.75;;;10.65;;
8129;SDS011;4106;52.532;13.408;2022-08-19T09:25:14;11.63;;;10.63;;
8129;SDS011;4106;52.532;13.408;2022-08-19T09:27:41;12.70;;;11.48;;
8129;SDS011;4106;52.532;13.408;2022-08-19T09:30:08;11.02;;;10.02;;
8129;SDS011;4106;52.532;13.408;2022-08-19T09:32:36;11.90;;;10.90;;
8129;SDS011;4106;52.532;13.408;2022-08-19T09:35:04;11.38;;;10.23;;
8129;SDS011;4106;52.532;13.408;2022-08-19T09:37:32;11.27;;;10.27;;
8129;SDS011;4106;52.532;13.408;2022-08-19T09:40:00;11.12;;;10.13;;
8129;SDS011;4106;52.532;13.408;2022-08-19T09:42:28;11.12;;;10.18;;
8129;SDS011;4106;52.532;13.408;2022-08-19T09:44:56;10.25;;;9.38;;
8129;SDS011;4106;52.532;13.408;2022-08-19T09:47:24;11.40;;;10.23;;
8129;SDS011;4106;52.532;13.408;2022-08-19T09:49:51;10.55;;;9.75;;
8129;SDS011;4106;52.532;13.408;2022-08-19T09:52:19;11.23;;;10.20;;
8129;SDS011;4106;52.532;13.408;2022-08-19T09:54:47;10.93;;;9.90;;
8129;SDS011;4106;52.532;13.408;2022-08-19T09:57:16;10.57;;;9.68;;
8129;SDS011;4106;52.532;13.408;2022-08-19T09:59:43;10.30;;;9.40;;
8129;SDS011;4106;52.532;13.408;2022-08-19T10:02:10;8.73;;;8.10;;
8129;SDS011;4106;52.532;13.408;2022-08-19T10:04:38;10.93;;;9.93;;
8129;SDS011;4106;52.532;13.408;2022-08-19T10:07:11;10.63;;;9.73;;
8129;SDS011;4106;52.532;13.408;2022-08-19T10:09:39;10.88;;;10.00;;
8129;SDS011;4106;52.532;13.408;2022-08-19T10:12:07;10.57;;;9.68;;
8129;SDS011;4106;52.532;13.408;2022-08-19T10:14:35;12.93;;;10.30;;
8129;SDS011;4106;52.532;13.408;2022-08-19T10:17:03;10.75;;;9.75;;
8129;SDS011;4106;52.532;13.408;2022-08-19T10:19:31;10.05;;;9.20;;
8129;SDS011;4106;52.532;13.408;2022-08-19T10:22:01;10.20;;;9.20;;
8129;SDS011;4106;52.532;13.408;2022-08-19T10:24:27;9.63;;;8.82;;
8129;SDS011;4106;52.532;13.408;2022-08-19T10:26:55;10.32;;;9.43;;
8129;SDS011;4106;52.532;13.408;2022-08-19T10:29:23;9.48;;;8.57;;
8129;SDS011;4106;52.532;13.408;2022-08-19T10:31:51;10.38;;;9.38;;
8129;SDS011;4106;52.532;13.408;2022-08-19T10:34:19;10.52;;;9.63;;
8129;SDS011;4106;52.532;13.408;2022-08-19T10:36:47;10.48;;;9.55;;
8129;SDS011;4106;52.532;13.408;2022-08-19T10:39:14;10.80;;;9.85;;
8129;SDS011;4106;52.532;13.408;2022-08-19T10:41:41;10.23;;;9.32;;
8129;SDS011;4106;52.532;13.408;2022-08-19T10:44:10;10.00;;;9.00;;
8129;SDS011;4106;52.532;13.408;2022-08-19T10:46:37;10.35;;;9.40;;
8129;SDS011;4106;52.532;13.408;2022-08-19T10:49:05;9.52;;;8.75;;
8129;SDS011;4106;52.532;13.408;2022-08-19T10:51:31;10.82;;;8.98;;
8129;SDS011;4106;52.532;13.408;2022-08-19T10:54:04;9.98;;;9.05;;
8129;SDS011;4106;52.532;13.408;2022-08-19T10:56:32;9.48;;;8.60;;
8129;SDS011;4106;52.532;13.408;2022-08-19T10:59:05;8.68;;;7.95;;
8129;SDS011;4106;52.532;13.408;2022-08-19T11:01:34;9.90;;;9.00;;
8129;SDS011;4106;52.532;13.408;2022-08-19T11:04:01;9.48;;;8.75;;
8129;SDS011;4106;52.532;13.408;2022-08-19T11:06:31;10.52;;;8.60;;
8129;SDS011;4106;52.532;13.408;2022-08-19T11:08:57;9.30;;;8.60;;
8129;SDS011;4106;52.532;13.408;2022-08-19T11:11:25;9.50;;;8.70;;
8129;SDS011;4106;52.532;13.408;2022-08-19T11:13:52;9.00;;;8.30;;
8129;SDS011;4106;52.532;13.408;2022-08-19T11:16:21;9.30;;;8.38;;
8129;SDS011;4106;52.532;13.408;2022-08-19T11:18:49;9.75;;;8.85;;
8129;SDS011;4106;52.532;13.408;2022-08-19T11:21:16;8.68;;;7.87;;
8129;SDS011;4106;52.532;13.408;2022-08-19T11:23:45;9.95;;;8.95;;
8129;SDS011;4106;52.532;13.408;2022-08-19T11:26:12;9.48;;;8.65;;
8129;SDS011;4106;52.532;13.408;2022-08-19T11:28:39;9.45;;;8.55;;
8129;SDS011;4106;52.532;13.408;2022-08-19T11:31:10;9.70;;;8.80;;
8129;SDS011;4106;52.532;13.408;2022-08-19T11:33:36;8.45;;;7.75;;
8129;SDS011;4106;52.532;13.408;2022-08-19T11:36:03;8.82;;;8.02;;
8129;SDS011;4106;52.532;13.408;2022-08-19T11:38:30;9.13;;;8.32;;
8129;SDS011;4106;52.532;13.408;2022-08-19T11:40:58;9.32;;;8.50;;
8129;SDS011;4106;52.532;13.408;2022-08-19T11:43:25;9.27;;;8.38;;
8129;SDS011;4106;52.532;13.408;2022-08-19T11:45:53;9.63;;;8.45;;
8129;SDS011;4106;52.532;13.408;2022-08-19T11:48:21;10.27;;;8.32;;
8129;SDS011;4106;52.532;13.408;2022-08-19T11:50:49;9.70;;;7.85;;
8129;SDS011;4106;52.532;13.408;2022-08-19T11:53:17;9.80;;;8.13;;
8129;SDS011;4106;52.532;13.408;2022-08-19T11:55:45;13.73;;;7.68;;
8129;SDS011;4106;52.532;13.408;2022-08-19T11:58:13;8.00;;;7.30;;
8129;SDS011;4106;52.532;13.408;2022-08-19T12:00:41;8.60;;;7.75;;
8129;SDS011;4106;52.532;13.408;2022-08-19T12:03:08;8.65;;;7.22;;
8129;SDS011;4106;52.532;13.408;2022-08-19T12:05:36;8.48;;;7.57;;
8129;SDS011;4106;52.532;13.408;2022-08-19T12:08:02;8.38;;;7.57;;
8129;SDS011;4106;52.532;13.408;2022-08-19T12:10:29;9.82;;;6.95;;
8129;SDS011;4106;52.532;13.408;2022-08-19T12:12:57;8.27;;;7.45;;
8129;SDS011;4106;52.532;13.408;2022-08-19T12:15:26;7.87;;;7.12;;
8129;SDS011;4106;52.532;13.408;2022-08-19T12:17:51;7.35;;;6.72;;
8129;SDS011;4106;52.532;13.408;2022-08-19T12:20:18;7.40;;;6.80;;
8129;SDS011;4106;52.532;13.408;2022-08-19T12:22:45;7.80;;;7.10;;
8129;SDS011;4106;52.532;13.408;2022-08-19T12:25:13;7.70;;;7.10;;
8129;SDS011;4106;52.532;13.408;2022-08-19T12:27:40;8.25;;;6.37;;
8129;SDS011;4106;52.532;13.408;2022-08-19T12:30:08;7.72;;;6.68;;
8129;SDS011;4106;52.532;13.408;2022-08-19T12:32:36;7.53;;;6.85;;
8129;SDS011;4106;52.532;13.408;2022-08-19T12:35:03;7.68;;;6.80;;
8129;SDS011;4106;52.532;13.408;2022-08-19T12:37:31;7.65;;;6.82;;
8129;SDS011;4106;52.532;13.408;2022-08-19T12:39:58;6.87;;;6.28;;
8129;SDS011;4106;52.532;13.408;2022-08-19T12:42:27;6.97;;;6.22;;
8129;SDS011;4106;52.532;13.408;2022-08-19T12:44:55;6.95;;;6.35;;
8129;SDS011;4106;52.532;13.408;2022-08-19T12:47:23;7.12;;;6.53;;
8129;SDS011;4106;52.532;13.408;2022-08-19T12:49:51;6.97;;;6.35;;
8129;SDS011;4106;52.532;13.408;2022-08-19T12:52:18;7.37;;;6.40;;
8129;SDS011;4106;52.532;13.408;2022-08-19T12:54:46;6.32;;;5.82;;
8129;SDS011;4106;52.532;13.408;2022-08-19T12:57:13;6.85;;;6.10;;
8129;SDS011;4106;52.532;13.408;2022-08-19T12:59:40;6.60;;;5.90;;
8129;SDS011;4106;52.532;13.408;2022-08-19T13:02:07;6.47;;;5.97;;
8129;SDS011;4106;52.532;13.408;2022-08-19T13:04:34;6.80;;;6.18;;
8129;SDS011;4106;52.532;13.408;2022-08-19T13:07:02;6.78;;;6.18;;
8129;SDS011;4106;52.532;13.408;2022-08-19T13:09:29;7.07;;;6.47;;
8129;SDS011;4106;52.532;13.408;2022-08-19T13:11:56;7.20;;;6.60;;
8129;SDS011;4106;52.532;13.408;2022-08-19T13:14:24;7.03;;;6.43;;
8129;SDS011;4106;52.532;13.408;2022-08-19T13:16:52;6.72;;;6.20;;
8129;SDS011;4106;52.532;13.408;2022-08-19T13:19:20;7.20;;;6.60;;
8129;SDS011;4106;52.532;13.408;2022-08-19T13:21:49;7.30;;;6.65;;
8129;SDS011;4106;52.532;13.408;2022-08-19T13:24:16;6.97;;;6.37;;
8129;SDS011;4106;52.532;13.408;2022-08-19T13:26:43;6.82;;;6.28;;
8129;SDS011;4106;52.532;13.408;2022-08-19T13:29:10;7.78;;;7.07;;
8129;SDS011;4106;52.532;13.408;2022-08-19T13:31:43;7.70;;;7.00;;
8129;SDS011;4106;52.532;13.408;2022-08-19T13:34:17;7.87;;;7.22;;
8129;SDS011;4106;52.532;13.408;2022-08-19T13:36:44;7.53;;;7.03;;
8129;SDS011;4106;52.532;13.408;2022-08-19T13:39:12;7.50;;;6.82;;
8129;SDS011;4106;52.532;13.408;2022-08-19T13:41:42;7.60;;;7.00;;
8129;SDS011;4106;52.532;13.408;2022-08-19T13:44:07;7.85;;;6.97;;
8129;SDS011;4106;52.532;13.408;2022-08-19T13:46:34;7.78;;;7.07;;
8129;SDS011;4106;52.532;13.408;2022-08-19T13:49:01;7.50;;;6.85;;
8129;SDS011;4106;52.532;13.408;2022-08-19T13:51:29;8.90;;;7.20;;
8129;SDS011;4106;52.532;13.408;2022-08-19T13:53:56;8.52;;;7.60;;
8129;SDS011;4106;52.532;13.408;2022-08-19T13:56:23;8.23;;;7.43;;
8129;SDS011;4106;52.532;13.408;2022-08-19T13:58:50;7.82;;;7.28;;
8129;SDS011;4106;52.532;13.408;2022-08-19T14:01:19;8.18;;;7.57;;
8129;SDS011;4106;52.532;13.408;2022-08-19T14:03:46;8.25;;;7.37;;
8129;SDS011;4106;52.532;13.408;2022-08-19T14:06:13;7.18;;;6.65;;
8129;SDS011;4106;52.532;13.408;2022-08-19T14:08:41;8.85;;;7.95;;
8129;SDS011;4106;52.532;13.408;2022-08-19T14:11:08;7.70;;;6.95;;
8129;SDS011;4106;52.532;13.408;2022-08-19T14:13:35;7.65;;;7.12;;
8129;SDS011;4106;52.532;13.408;2022-08-19T14:16:06;7.97;;;7.25;;
8129;SDS011;4106;52.532;13.408;2022-08-19T14:18:34;9.98;;;7.18;;
8129;SDS011;4106;52.532;13.408;2022-08-19T14:21:03;8.05;;;7.30;;
8129;SDS011;4106;52.532;13.408;2022-08-19T14:23:31;8.00;;;7.28;;
8129;SDS011;4106;52.532;13.408;2022-08-19T14:26:04;9.13;;;8.25;;
8129;SDS011;4106;52.532;13.408;2022-08-19T14:28:32;8.65;;;7.90;;
8129;SDS011;4106;52.532;13.408;2022-08-19T14:30:59;7.50;;;6.80;;
8129;SDS011;4106;52.532;13.408;2022-08-19T14:33:27;8.52;;;7.87;;
8129;SDS011;4106;52.532;13.408;2022-08-19T14:35:54;8.45;;;7.35;;
8129;SDS011;4106;52.532;13.408;2022-08-19T14:38:22;8.05;;;7.35;;
8129;SDS011;4106;52.532;13.408;2022-08-19T14:40:49;7.78;;;7.18;;
8129;SDS011;4106;52.532;13.408;2022-08-19T14:43:17;7.55;;;6.95;;
8129;SDS011;4106;52.532;13.408;2022-08-19T14:45:44;9.13;;;8.32;;
8129;SDS011;4106;52.532;13.408;2022-08-19T14:48:11;8.75;;;7.78;;
8129;SDS011;4106;52.532;13.408;2022-08-19T14:50:38;8.05;;;7.28;;
8129;SDS011;4106;52.532;13.408;2022-08-19T14:53:07;8.63;;;7.62;;
8129;SDS011;4106;52.532;13.408;2022-08-19T14:55:33;7.47;;;6.80;;
8129;SDS011;4106;52.532;13.408;2022-08-19T14:58:00;8.15;;;7.53;;
8129;SDS011;4106;52.532;13.408;2022-08-19T15:00:27;7.78;;;7.07;;
8129;SDS011;4106;52.532;13.408;2022-08-19T15:02:55;7.25;;;6.65;;
8129;SDS011;4106;52.532;13.408;2022-08-19T15:05:24;7.10;;;6.50;;